createdAt,value
2023-02-08T00:01:25.264Z,26.50
2023-02-08T00:03:51.706Z,28.63
2023-02-08T00:06:18.358Z,26.63
2023-02-08T00:08:45.132Z,27.43
2023-02-08T00:11:12.227Z,26.63
2023-02-08T00:13:41.903Z,24.73
2023-02-08T00:16:08.688Z,24.40
2023-02-08T00:18:35.090Z,26.33
2023-02-08T00:21:01.525Z,26.10
2023-02-08T00:23:27.969Z,24.13
2023-02-08T00:25:54.523Z,27.47
2023-02-08T00:28:21.203Z,27.87
2023-02-08T00:30:48.473Z,28.83
2023-02-08T00:33:15.446Z,29.33
2023-02-08T00:35:42.650Z,28.47
2023-02-08T00:38:09.128Z,29.30
2023-02-08T00:40:35.544Z,26.93
2023-02-08T00:43:02.857Z,32.87
2023-02-08T00:45:29.366Z,26.83
2023-02-08T00:47:55.777Z,27.03
2023-02-08T00:50:22.274Z,27.80
2023-02-08T00:52:48.732Z,28.03
2023-02-08T00:55:15.200Z,28.93
2023-02-08T00:57:41.649Z,25.93
2023-02-08T01:00:09.152Z,28.73
2023-02-08T01:02:35.598Z,25.93
2023-02-08T01:05:02.063Z,23.63
2023-02-08T01:07:28.473Z,29.60
2023-02-08T01:09:54.920Z,26.57
2023-02-08T01:12:21.340Z,26.97
2023-02-08T01:14:47.807Z,25.33
2023-02-08T01:17:14.268Z,25.40
2023-02-08T01:19:42.505Z,25.53
2023-02-08T01:22:09.125Z,26.87
2023-02-08T01:24:35.528Z,27.83
2023-02-08T01:27:02.105Z,27.13
2023-02-08T01:29:28.527Z,30.80
2023-02-08T01:31:55.008Z,31.40
2023-02-08T01:34:21.386Z,26.87
2023-02-08T01:36:47.969Z,28.63
2023-02-08T01:39:14.416Z,28.37
2023-02-08T01:41:44.122Z,25.33
2023-02-08T01:44:13.656Z,27.30
2023-02-08T01:46:40.934Z,32.20
2023-02-08T01:49:12.172Z,32.53
2023-02-08T01:51:42.908Z,27.80
2023-02-08T01:54:10.515Z,30.20
2023-02-08T01:56:38.999Z,28.47
2023-02-08T01:59:08.658Z,32.23
2023-02-08T02:01:35.434Z,28.27
2023-02-08T02:04:06.333Z,29.77
2023-02-08T02:06:34.861Z,28.90
2023-02-08T02:09:30.594Z,31.40
2023-02-08T02:11:57.902Z,30.00
2023-02-08T02:14:24.528Z,29.63
2023-02-08T02:16:51.016Z,32.63
2023-02-08T02:19:23.486Z,34.53
2023-02-08T02:22:09.237Z,34.07
2023-02-08T02:24:38.782Z,30.13
2023-02-08T02:27:11.270Z,33.33
2023-02-08T02:29:43.712Z,28.60
2023-02-08T02:32:24.450Z,30.43
2023-02-08T02:35:04.654Z,29.33
2023-02-08T02:37:40.163Z,31.90
2023-02-08T02:40:28.849Z,29.77
2023-02-08T02:43:18.412Z,33.97
2023-02-08T02:45:56.933Z,34.60
2023-02-08T02:48:36.450Z,32.90
2023-02-08T02:51:11.412Z,31.27
2023-02-08T02:53:44.127Z,31.17
2023-02-08T02:56:14.766Z,32.30
2023-02-08T02:58:42.737Z,33.30
2023-02-08T03:01:09.217Z,31.27
2023-02-08T03:03:35.792Z,33.70
2023-02-08T03:06:06.667Z,26.80
2023-02-08T03:08:49.893Z,32.67
2023-02-08T03:11:35.330Z,31.33
2023-02-08T03:14:04.965Z,28.33
2023-02-08T03:16:35.103Z,31.77
2023-02-08T03:19:14.167Z,31.97
2023-02-08T03:21:43.517Z,33.43
2023-02-08T03:24:16.032Z,31.37
2023-02-08T03:26:42.566Z,30.83
2023-02-08T03:29:11.931Z,32.80
2023-02-08T03:31:41.754Z,35.47
2023-02-08T03:34:20.475Z,30.03
2023-02-08T03:36:46.818Z,31.00
2023-02-08T03:39:15.770Z,31.77
2023-02-08T03:41:43.785Z,31.17
2023-02-08T03:44:24.585Z,28.27
2023-02-08T03:46:53.662Z,30.07
2023-02-08T03:49:21.985Z,37.43
2023-02-08T03:51:49.324Z,34.67
2023-02-08T03:54:17.803Z,30.97
2023-02-08T03:57:07.810Z,31.50
2023-02-08T03:59:39.650Z,36.20
2023-02-08T04:02:07.425Z,34.17
2023-02-08T04:04:35.537Z,31.33
2023-02-08T04:07:02.187Z,31.80
2023-02-08T04:09:28.619Z,30.80
2023-02-08T04:11:55.009Z,31.13
2023-02-08T04:14:21.424Z,33.40
2023-02-08T04:16:47.796Z,35.13
2023-02-08T04:19:14.211Z,32.53
2023-02-08T04:21:40.571Z,39.20
2023-02-08T04:24:07.001Z,35.37
2023-02-08T04:26:33.610Z,32.57
2023-02-08T04:29:00.039Z,32.80
2023-02-08T04:31:26.631Z,31.30
2023-02-08T04:33:53.082Z,31.33
2023-02-08T04:36:19.492Z,37.00
2023-02-08T04:38:45.914Z,34.10
2023-02-08T04:41:12.265Z,32.43
2023-02-08T04:43:38.678Z,33.20
2023-02-08T04:46:05.112Z,31.57
2023-02-08T04:48:31.545Z,35.57
2023-02-08T04:50:58.335Z,36.07
2023-02-08T04:53:25.357Z,35.20
2023-02-08T04:55:52.338Z,33.43
2023-02-08T04:58:19.019Z,35.90
2023-02-08T05:00:45.745Z,38.03
2023-02-08T05:03:12.285Z,50.30
2023-02-08T05:05:38.741Z,47.77
2023-02-08T05:08:05.322Z,43.77
2023-02-08T05:10:31.714Z,41.63
2023-02-08T05:12:58.127Z,39.50
2023-02-08T05:15:24.596Z,39.83
2023-02-08T05:17:51.049Z,41.60
2023-02-08T05:20:17.581Z,38.70
2023-02-08T05:22:44.039Z,37.43
2023-02-08T05:25:10.602Z,39.50
2023-02-08T05:27:37.583Z,36.80
2023-02-08T05:30:04.734Z,35.03
2023-02-08T05:32:31.425Z,41.40
2023-02-08T05:34:57.860Z,41.07
2023-02-08T05:37:24.295Z,42.97
2023-02-08T05:39:50.729Z,44.53
2023-02-08T05:42:17.134Z,41.40
2023-02-08T05:44:43.484Z,39.30
2023-02-08T05:47:09.954Z,43.03
2023-02-08T05:49:36.387Z,40.43
2023-02-08T05:52:02.834Z,45.13
2023-02-08T05:54:29.275Z,45.47
2023-02-08T05:56:55.683Z,46.40
2023-02-08T05:59:22.170Z,45.20
2023-02-08T06:01:49.019Z,44.07
2023-02-08T06:04:15.455Z,46.10
2023-02-08T06:06:41.862Z,42.07
2023-02-08T06:09:08.229Z,43.50
2023-02-08T06:11:36.283Z,47.90
2023-02-08T06:14:03.291Z,45.00
2023-02-08T06:16:29.860Z,44.27
2023-02-08T06:18:56.380Z,41.67
2023-02-08T06:21:24.467Z,45.07
2023-02-08T06:23:51.107Z,46.23
2023-02-08T06:26:17.601Z,43.93
2023-02-08T06:28:43.991Z,41.97
2023-02-08T06:31:10.370Z,44.23
2023-02-08T06:33:36.801Z,50.80
2023-02-08T06:36:03.271Z,51.47
2023-02-08T06:38:29.654Z,44.47
2023-02-08T06:40:56.105Z,50.10
2023-02-08T06:43:22.511Z,44.57
2023-02-08T06:45:48.967Z,50.43
2023-02-08T06:48:15.646Z,50.87
2023-02-08T06:50:43.260Z,44.37
2023-02-08T06:53:09.741Z,46.63
2023-02-08T06:55:36.341Z,45.77
2023-02-08T06:58:02.875Z,52.90
2023-02-08T07:00:29.340Z,55.07
2023-02-08T07:02:55.909Z,49.73
2023-02-08T07:05:22.303Z,51.77
2023-02-08T07:07:48.983Z,44.57
2023-02-08T07:10:16.108Z,50.87
2023-02-08T07:12:42.525Z,50.87
2023-02-08T07:15:09.376Z,58.10
2023-02-08T07:17:35.737Z,53.30
2023-02-08T07:20:02.100Z,48.33
2023-02-08T07:22:28.477Z,53.47
2023-02-08T07:24:55.160Z,48.60
2023-02-08T07:27:21.572Z,54.50
2023-02-08T07:29:48.039Z,56.50
2023-02-08T07:32:14.516Z,54.83
2023-02-08T07:34:40.934Z,55.77
2023-02-08T07:37:07.775Z,50.77
2023-02-08T07:39:34.614Z,53.23
2023-02-08T07:42:00.985Z,50.87
2023-02-08T07:44:27.429Z,52.43
2023-02-08T07:46:53.859Z,54.70
2023-02-08T07:49:20.274Z,46.83
2023-02-08T07:51:46.770Z,62.27
2023-02-08T07:54:13.366Z,49.37
2023-02-08T07:56:39.846Z,55.63
2023-02-08T07:59:06.665Z,46.77
2023-02-08T08:01:33.238Z,52.93
2023-02-08T08:03:59.758Z,60.53
2023-02-08T08:06:26.199Z,53.20
2023-02-08T08:08:52.743Z,53.07
2023-02-08T08:11:19.923Z,55.60
2023-02-08T08:13:46.453Z,54.63
2023-02-08T08:16:13.196Z,58.83
2023-02-08T08:18:39.696Z,60.73
2023-02-08T08:21:06.454Z,56.97
2023-02-08T08:23:36.456Z,56.67
2023-02-08T08:26:21.651Z,60.43
2023-02-08T08:28:48.624Z,55.13
2023-02-08T08:31:16.514Z,60.60
2023-02-08T08:33:43.086Z,60.20
2023-02-08T08:36:09.988Z,61.87
2023-02-08T08:38:38.726Z,58.67
2023-02-08T08:41:12.527Z,60.30
2023-02-08T08:43:39.009Z,67.63
2023-02-08T08:46:06.542Z,65.27
2023-02-08T08:48:33.811Z,60.13
2023-02-08T08:51:00.278Z,56.17
2023-02-08T08:53:26.945Z,60.77
2023-02-08T08:55:53.369Z,48.80
2023-02-08T08:58:20.001Z,60.10
2023-02-08T09:00:46.437Z,63.27
2023-02-08T09:03:12.905Z,59.33
2023-02-08T09:05:39.302Z,54.03
2023-02-08T09:08:06.549Z,53.10
2023-02-08T09:10:33.466Z,53.00
2023-02-08T09:12:59.916Z,54.97
2023-02-08T09:15:26.397Z,57.87
2023-02-08T09:17:52.800Z,48.83
2023-02-08T09:20:19.350Z,55.43
2023-02-08T09:22:45.725Z,51.63
2023-02-08T09:25:12.207Z,51.63
2023-02-08T09:27:38.639Z,51.47
2023-02-08T09:30:05.488Z,48.80
2023-02-08T09:32:36.847Z,51.67
2023-02-08T09:35:03.567Z,48.20
2023-02-08T09:37:30.112Z,45.33
2023-02-08T09:39:58.672Z,51.47
2023-02-08T09:42:29.708Z,46.97
2023-02-08T09:45:05.412Z,43.23
2023-02-08T09:47:35.065Z,50.07
2023-02-08T09:50:05.418Z,46.80
2023-02-08T09:52:42.871Z,44.00
2023-02-08T09:55:17.426Z,43.27
2023-02-08T09:57:44.344Z,43.07
2023-02-08T10:00:14.203Z,46.40
2023-02-08T10:02:41.865Z,44.90
2023-02-08T10:05:11.911Z,45.13
2023-02-08T10:07:39.558Z,42.17
2023-02-08T10:10:08.058Z,50.13
2023-02-08T10:12:53.382Z,52.97
2023-02-08T10:15:19.784Z,42.90
2023-02-08T10:17:58.122Z,51.03
2023-02-08T10:20:28.500Z,47.20
2023-02-08T10:23:13.322Z,49.67
2023-02-08T10:25:57.563Z,50.87
2023-02-08T10:28:23.989Z,45.13
2023-02-08T10:30:50.580Z,49.00
2023-02-08T10:33:30.219Z,45.70
2023-02-08T10:35:57.359Z,44.53
2023-02-08T10:38:44.088Z,45.37
2023-02-08T10:41:15.436Z,43.93
2023-02-08T10:43:45.824Z,45.47
2023-02-08T10:46:18.338Z,41.67
2023-02-08T10:48:48.616Z,41.93
2023-02-08T10:51:16.734Z,42.33
2023-02-08T10:53:43.509Z,45.20
2023-02-08T10:56:17.891Z,42.67
2023-02-08T10:58:44.308Z,42.17
2023-02-08T11:01:10.708Z,68.37
2023-02-08T11:03:39.626Z,47.57
2023-02-08T11:06:15.245Z,43.93
2023-02-08T11:08:54.651Z,42.93
2023-02-08T11:11:21.214Z,43.37
2023-02-08T11:13:51.375Z,42.40
2023-02-08T11:16:25.178Z,43.53
2023-02-08T11:19:01.321Z,41.80
2023-02-08T11:21:34.058Z,42.57
2023-02-08T11:24:02.111Z,42.13
2023-02-08T11:26:36.757Z,41.57
2023-02-08T11:29:23.393Z,37.83
2023-02-08T11:31:55.556Z,38.70
2023-02-08T11:34:26.233Z,45.27
2023-02-08T11:36:52.806Z,43.77
2023-02-08T11:39:33.340Z,41.70
2023-02-08T11:42:01.392Z,37.23
2023-02-08T11:44:32.573Z,39.33
2023-02-08T11:47:03.297Z,36.43
2023-02-08T11:49:36.412Z,42.63
2023-02-08T11:52:02.937Z,38.17
2023-02-08T11:54:34.328Z,43.73
2023-02-08T11:57:02.337Z,40.67
2023-02-08T11:59:29.248Z,37.67
2023-02-08T12:01:55.776Z,41.33
2023-02-08T12:04:22.302Z,45.73
2023-02-08T12:06:51.818Z,37.47
2023-02-08T12:09:32.077Z,34.23
2023-02-08T12:12:12.805Z,38.70
2023-02-08T12:14:39.206Z,36.57
2023-02-08T12:17:20.938Z,35.00
2023-02-08T12:20:06.136Z,34.33
2023-02-08T12:22:32.980Z,34.77
2023-02-08T12:25:20.641Z,34.83
2023-02-08T12:28:06.616Z,35.70
2023-02-08T12:30:34.758Z,34.77
2023-02-08T12:33:18.356Z,35.00
2023-02-08T12:36:03.187Z,39.63
2023-02-08T12:38:49.018Z,37.43
2023-02-08T12:41:22.149Z,40.73
2023-02-08T12:43:58.775Z,36.63
2023-02-08T12:46:33.184Z,38.43
2023-02-08T12:48:59.621Z,33.03
2023-02-08T12:52:01.633Z,36.93
2023-02-08T12:54:37.400Z,29.90
2023-02-08T12:57:05.617Z,34.13
2023-02-08T12:59:45.671Z,30.93
2023-02-08T13:02:32.343Z,32.30
2023-02-08T13:05:00.899Z,32.60
2023-02-08T13:07:34.603Z,36.27
2023-02-08T13:10:02.757Z,28.67
2023-02-08T13:12:40.348Z,30.90
2023-02-08T13:15:31.133Z,31.80
2023-02-08T13:17:57.785Z,28.67
2023-02-08T13:20:32.702Z,30.33
2023-02-08T13:23:03.700Z,30.67
2023-02-08T13:25:32.408Z,31.23
2023-02-08T13:28:06.766Z,27.03
2023-02-08T13:30:34.941Z,29.30
2023-02-08T13:33:06.063Z,30.13
2023-02-08T13:35:32.720Z,23.00
2023-02-08T13:38:03.262Z,25.23
2023-02-08T13:40:31.117Z,25.23
2023-02-08T13:43:34.730Z,25.77
2023-02-08T13:46:02.518Z,26.30
2023-02-08T13:48:40.613Z,29.00
2023-02-08T13:51:08.048Z,21.37
2023-02-08T13:53:37.757Z,21.10
2023-02-08T13:56:05.949Z,22.93
2023-02-08T13:58:38.272Z,24.97
2023-02-08T14:01:15.523Z,26.50
2023-02-08T14:03:42.005Z,22.60
2023-02-08T14:06:20.999Z,28.33
2023-02-08T14:08:55.252Z,26.93
2023-02-08T14:11:26.961Z,25.73
2023-02-08T14:13:58.561Z,24.30
2023-02-08T14:16:38.946Z,26.23
2023-02-08T14:19:20.655Z,23.10
2023-02-08T14:21:48.449Z,24.03
2023-02-08T14:24:34.425Z,29.77
2023-02-08T14:27:17.193Z,24.53
2023-02-08T14:29:43.803Z,24.03
2023-02-08T14:32:21.867Z,22.97
2023-02-08T14:34:48.773Z,26.87
2023-02-08T14:37:18.152Z,23.80
2023-02-08T14:39:44.585Z,29.73
2023-02-08T14:42:13.922Z,22.33
2023-02-08T14:44:46.591Z,22.93
2023-02-08T14:47:24.981Z,29.23
2023-02-08T14:50:10.483Z,27.17
2023-02-08T14:52:37.804Z,26.80
2023-02-08T14:55:13.530Z,25.83
2023-02-08T14:57:40.671Z,27.43
2023-02-08T15:00:18.742Z,27.47
2023-02-08T15:02:45.776Z,30.23
2023-02-08T15:05:33.173Z,33.47
2023-02-08T15:08:00.558Z,31.13
2023-02-08T15:10:28.635Z,28.97
2023-02-08T15:13:00.763Z,27.87
2023-02-08T15:15:33.173Z,30.83
2023-02-08T15:18:00.263Z,26.27
2023-02-08T15:20:28.503Z,22.97
2023-02-08T15:22:58.949Z,26.93
2023-02-08T15:25:25.331Z,26.93
2023-02-08T15:27:53.865Z,29.13
2023-02-08T15:30:28.108Z,27.73
2023-02-08T15:32:54.718Z,27.73
2023-02-08T15:35:24.158Z,25.83
2023-02-08T15:37:51.439Z,30.47
2023-02-08T15:40:25.618Z,25.77
2023-02-08T15:42:53.327Z,31.03
2023-02-08T15:45:24.568Z,33.10
2023-02-08T15:47:51.677Z,31.53
2023-02-08T15:50:19.411Z,32.10
2023-02-08T15:52:46.251Z,29.90
2023-02-08T15:55:15.481Z,30.13
2023-02-08T15:57:47.224Z,33.20
2023-02-08T16:00:16.558Z,34.77
2023-02-08T16:02:43.153Z,29.43
2023-02-08T16:05:19.598Z,28.30
2023-02-08T16:07:46.407Z,30.47
2023-02-08T16:10:22.581Z,32.33
2023-02-08T16:13:01.759Z,28.93
2023-02-08T16:15:35.338Z,26.10
2023-02-08T16:18:01.850Z,30.07
2023-02-08T16:20:32.609Z,26.30
2023-02-08T16:23:01.258Z,27.20
2023-02-08T16:25:44.874Z,27.53
2023-02-08T16:28:37.596Z,29.13
2023-02-08T16:31:04.913Z,29.50
2023-02-08T16:33:32.723Z,30.23
2023-02-08T16:36:03.117Z,30.03
2023-02-08T16:38:30.918Z,28.27
2023-02-08T16:41:12.021Z,27.37
2023-02-08T16:43:43.777Z,31.87
2023-02-08T16:46:17.977Z,29.70
2023-02-08T16:48:55.073Z,27.47
2023-02-08T16:51:22.061Z,29.50
2023-02-08T16:53:56.394Z,33.63
2023-02-08T16:56:23.484Z,27.63
2023-02-08T16:58:49.918Z,27.87
2023-02-08T17:01:17.224Z,30.67
2023-02-08T17:03:43.859Z,30.80
2023-02-08T17:06:21.056Z,33.73
2023-02-08T17:08:47.498Z,25.50
2023-02-08T17:11:13.895Z,29.43
2023-02-08T17:13:40.252Z,29.67
2023-02-08T17:16:07.053Z,27.83
2023-02-08T17:18:34.966Z,28.40
2023-02-08T17:21:02.116Z,27.80
2023-02-08T17:23:28.634Z,27.97
2023-02-08T17:25:55.150Z,36.80
2023-02-08T17:28:22.041Z,33.67
2023-02-08T17:30:49.180Z,38.63
2023-02-08T17:33:18.492Z,31.13
2023-02-08T17:35:46.149Z,29.97
2023-02-08T17:38:13.994Z,31.30
2023-02-08T17:40:40.444Z,35.63
2023-02-08T17:43:07.073Z,30.97
2023-02-08T17:45:36.772Z,36.63
2023-02-08T17:48:03.392Z,35.57
2023-02-08T17:50:29.811Z,36.47
2023-02-08T17:52:56.256Z,35.73
2023-02-08T17:55:22.824Z,34.53
2023-02-08T17:57:49.337Z,33.67
2023-02-08T18:00:18.085Z,40.93
2023-02-08T18:02:46.878Z,36.40
2023-02-08T18:05:14.198Z,40.70
2023-02-08T18:07:41.500Z,45.37
2023-02-08T18:10:08.440Z,44.13
2023-02-08T18:12:35.749Z,44.63
2023-02-08T18:15:03.062Z,43.00
2023-02-08T18:17:29.671Z,46.90
2023-02-08T18:19:56.072Z,50.43
2023-02-08T18:22:24.965Z,47.50
2023-02-08T18:24:51.575Z,44.63
2023-02-08T18:27:19.723Z,46.07
2023-02-08T18:29:46.220Z,46.67
2023-02-08T18:32:12.687Z,53.80
2023-02-08T18:34:39.742Z,41.37
2023-02-08T18:37:06.098Z,42.17
2023-02-08T18:39:32.485Z,43.40
2023-02-08T18:41:58.920Z,45.17
2023-02-08T18:44:25.306Z,55.90
2023-02-08T18:46:52.102Z,44.50
2023-02-08T18:49:19.731Z,43.57
2023-02-08T18:51:47.252Z,43.63
2023-02-08T18:54:14.396Z,45.73
2023-02-08T18:56:42.225Z,46.20
2023-02-08T18:59:08.957Z,45.53
2023-02-08T19:01:36.000Z,47.93
2023-02-08T19:04:05.638Z,48.90
2023-02-08T19:06:34.600Z,48.37
2023-02-08T19:09:02.223Z,53.63
2023-02-08T19:11:30.779Z,54.00
2023-02-08T19:13:57.976Z,47.37
2023-02-08T19:16:24.862Z,49.53
2023-02-08T19:18:53.105Z,51.70
2023-02-08T19:21:20.196Z,46.43
2023-02-08T19:23:47.652Z,55.43
2023-02-08T19:26:39.765Z,48.53
2023-02-08T19:29:07.853Z,54.17
2023-02-08T19:31:34.764Z,51.17
2023-02-08T19:34:02.250Z,55.30
2023-02-08T19:36:33.105Z,51.73
2023-02-08T19:39:00.156Z,50.10
2023-02-08T19:41:28.878Z,44.40
2023-02-08T19:43:55.355Z,49.27
2023-02-08T19:46:27.223Z,50.27
2023-02-08T19:49:00.021Z,48.27
2023-02-08T19:51:27.045Z,47.40
2023-02-08T19:53:53.766Z,50.37
2023-02-08T19:56:20.781Z,48.20
2023-02-08T19:58:47.358Z,47.20
2023-02-08T20:01:17.574Z,47.80
2023-02-08T20:03:44.304Z,54.93
2023-02-08T20:06:15.221Z,50.47
2023-02-08T20:08:41.794Z,50.33
2023-02-08T20:11:16.674Z,67.70
2023-02-08T20:13:43.139Z,55.77
2023-02-08T20:16:09.519Z,53.53
2023-02-08T20:18:36.201Z,51.67
2023-02-08T20:21:03.076Z,51.57
2023-02-08T20:23:30.136Z,46.60
2023-02-08T20:26:03.471Z,49.97
2023-02-08T20:28:29.998Z,47.87
2023-02-08T20:30:56.574Z,48.97
2023-02-08T20:33:23.029Z,49.27
2023-02-08T20:35:49.467Z,51.67
2023-02-08T20:38:15.921Z,53.53
2023-02-08T20:40:42.748Z,52.10
2023-02-08T20:43:09.314Z,54.23
2023-02-08T20:45:35.711Z,48.60
2023-02-08T20:48:02.082Z,51.53
2023-02-08T20:50:30.940Z,51.47
2023-02-08T20:52:58.000Z,54.70
2023-02-08T20:55:24.885Z,47.17
2023-02-08T20:57:51.305Z,52.03
2023-02-08T21:00:17.875Z,50.83
2023-02-08T21:02:44.350Z,52.53
2023-02-08T21:05:10.820Z,49.47
2023-02-08T21:07:40.380Z,55.13
2023-02-08T21:10:07.199Z,57.73
2023-02-08T21:12:33.584Z,50.73
2023-02-08T21:14:59.945Z,45.53
2023-02-08T21:17:26.404Z,66.80
2023-02-08T21:19:52.829Z,59.27
2023-02-08T21:22:19.284Z,49.53
2023-02-08T21:24:45.813Z,49.87
2023-02-08T21:27:13.217Z,49.90
2023-02-08T21:29:39.876Z,50.17
2023-02-08T21:32:06.501Z,51.47
2023-02-08T21:34:32.988Z,54.77
2023-02-08T21:37:02.244Z,51.73
2023-02-08T21:39:28.756Z,53.30
2023-02-08T21:41:55.586Z,53.17
2023-02-08T21:44:22.801Z,48.70
2023-02-08T21:46:49.322Z,55.33
2023-02-08T21:49:34.650Z,53.00
2023-02-08T21:52:19.636Z,57.27
2023-02-08T21:54:46.285Z,60.40
2023-02-08T21:57:20.349Z,52.53
2023-02-08T21:59:47.982Z,58.57
2023-02-08T22:02:22.370Z,55.93
2023-02-08T22:04:49.326Z,54.27
2023-02-08T22:07:16.166Z,59.10
2023-02-08T22:09:42.737Z,57.27
2023-02-08T22:12:14.071Z,56.37
2023-02-08T22:14:40.499Z,57.50
2023-02-08T22:17:07.005Z,57.43
2023-02-08T22:19:33.626Z,54.03
2023-02-08T22:22:00.132Z,56.87
2023-02-08T22:24:26.642Z,62.07
2023-02-08T22:26:53.268Z,54.27
2023-02-08T22:29:20.093Z,59.60
2023-02-08T22:31:46.603Z,52.87
2023-02-08T22:34:13.102Z,56.53
2023-02-08T22:36:39.500Z,49.23
2023-02-08T22:39:06.135Z,56.87
2023-02-08T22:41:32.503Z,58.90
2023-02-08T22:43:58.944Z,66.93
2023-02-08T22:46:25.332Z,63.00
2023-02-08T22:48:51.818Z,62.20
2023-02-08T22:51:18.831Z,61.53
2023-02-08T22:53:45.382Z,62.37
2023-02-08T22:56:15.204Z,61.57
2023-02-08T22:58:41.999Z,56.40
2023-02-08T23:01:12.148Z,55.30
2023-02-08T23:03:38.637Z,57.40
2023-02-08T23:06:06.454Z,59.37
2023-02-08T23:08:33.030Z,56.20
2023-02-08T23:11:00.047Z,62.23
2023-02-08T23:13:27.279Z,68.83
2023-02-08T23:15:53.775Z,57.87
2023-02-08T23:18:20.516Z,61.83
2023-02-08T23:20:47.174Z,66.57
2023-02-08T23:23:13.886Z,62.77
2023-02-08T23:25:40.779Z,62.47
2023-02-08T23:28:08.017Z,63.90
2023-02-08T23:30:35.723Z,59.47
2023-02-08T23:33:02.078Z,55.27
2023-02-08T23:35:28.492Z,61.07
2023-02-08T23:37:54.838Z,60.53
2023-02-08T23:40:21.343Z,57.70
2023-02-08T23:42:47.807Z,56.47
2023-02-08T23:45:14.191Z,67.13
2023-02-08T23:47:40.670Z,60.73
2023-02-08T23:50:08.033Z,63.73
2023-02-08T23:52:35.278Z,63.57
2023-02-08T23:55:01.903Z,60.80
2023-02-08T23:57:32.860Z,59.50
